Time;durP1;ratioP1;P1;durP2;ratioP2;P2;SDS_P1;SDS_P2;PMS_P1;PMS_P2;Temp;Humidity;BMP_temperature;BMP_pressure;BME280_temperature;BME280_humidity;BME280_pressure;Samples;Min_cycle;Max_cycle;Signal;HPM_P1;HPM_P2
2023/08/08 00:02:25;;;;;;;7.70;2.13;;;14.10;99.90;;;;;;5073361;28;20501;-52
2023/08/08 00:04:52;;;;;;;5.47;2.13;;;14.00;99.90;;;;;;5072604;28;20538;-50
2023/08/08 00:07:18;;;;;;;6.60;2.07;;;14.10;99.90;;;;;;5073270;28;20445;-51
2023/08/08 00:09:45;;;;;;;9.03;2.63;;;14.00;99.90;;;;;;5072534;28;20539;-51
2023/08/08 00:12:13;;;;;;;10.17;2.60;;;13.90;99.90;;;;;;5071957;28;21025;-51
2023/08/08 00:14:39;;;;;;;6.93;2.40;;;13.90;99.90;;;;;;5072305;28;20464;-51
2023/08/08 00:17:06;;;;;;;7.70;2.10;;;13.90;99.90;;;;;;5073010;28;20535;-51
2023/08/08 00:19:33;;;;;;;5.47;2.03;;;13.80;99.90;;;;;;5072991;28;20445;-51
2023/08/08 00:21:59;;;;;;;7.50;2.57;;;13.80;99.90;;;;;;5072833;28;20910;-51
2023/08/08 00:24:26;;;;;;;4.47;2.40;;;13.80;99.90;;;;;;5070826;28;20516;-50
2023/08/08 00:26:52;;;;;;;12.83;3.63;;;13.70;99.90;;;;;;5072958;28;20476;-52
2023/08/08 00:29:20;;;;;;;7.00;2.53;;;13.70;99.90;;;;;;5068856;28;20488;-51
2023/08/08 00:31:47;;;;;;;4.30;2.00;;;13.70;99.90;;;;;;5064628;28;20488;-52
2023/08/08 00:34:13;;;;;;;5.53;2.60;;;13.70;99.90;;;;;;5071906;28;20465;-52
2023/08/08 00:36:40;;;;;;;4.90;2.27;;;13.70;99.90;;;;;;5072869;28;20499;-51
2023/08/08 00:39:07;;;;;;;6.23;2.60;;;13.70;99.90;;;;;;5071777;28;20465;-51
2023/08/08 00:41:34;;;;;;;6.30;2.00;;;13.60;99.90;;;;;;5069541;28;20525;-50
2023/08/08 00:44:00;;;;;;;2.80;2.03;;;13.60;99.90;;;;;;5065532;28;21060;-51
2023/08/08 00:46:29;;;;;;;5.77;2.50;;;13.60;99.90;;;;;;5072595;28;20874;-50
2023/08/08 00:48:55;;;;;;;7.37;2.40;;;13.60;99.90;;;;;;5072385;28;20465;-50
2023/08/08 00:51:22;;;;;;;5.47;2.47;;;13.60;99.90;;;;;;5072409;28;20501;-52
2023/08/08 00:53:50;;;;;;;5.33;1.73;;;13.60;99.90;;;;;;5066681;28;20497;-52
2023/08/08 00:56:18;;;;;;;4.60;1.97;;;13.60;99.90;;;;;;5066660;28;20517;-52
2023/08/08 00:58:46;;;;;;;3.70;1.83;;;13.60;99.90;;;;;;5062305;28;20998;-51
2023/08/08 01:01:12;;;;;;;9.30;2.27;;;13.60;99.90;;;;;;5072080;28;20464;-52
2023/08/08 01:03:40;;;;;;;10.07;2.27;;;13.60;99.90;;;;;;5071375;28;20441;-51
2023/08/08 01:06:24;;;;;;;9.93;2.17;;;13.60;99.90;;;;;;5063676;28;20520;-50
2023/08/08 01:08:58;;;;;;;8.60;1.97;;;13.60;99.90;;;;;;5070352;28;20500;-50
2023/08/08 01:11:26;;;;;;;3.03;1.57;;;13.50;99.90;;;;;;5070231;28;20516;-51
2023/08/08 01:13:54;;;;;;;11.13;2.00;;;13.50;99.90;;;;;;5069851;28;20492;-50
2023/08/08 01:16:21;;;;;;;7.93;1.83;;;13.50;99.90;;;;;;5067814;28;20497;-51
2023/08/08 01:18:50;;;;;;;12.33;2.37;;;13.50;99.90;;;;;;5069828;28;20535;-50
2023/08/08 01:21:17;;;;;;;9.53;2.47;;;13.60;99.90;;;;;;5071006;28;20877;-50
2023/08/08 01:23:48;;;;;;;2.40;1.37;;;13.50;99.90;;;;;;5069899;28;20538;-51
2023/08/08 01:26:17;;;;;;;3.47;1.97;;;13.50;99.90;;;;;;5070469;28;20994;-51
2023/08/08 01:28:43;;;;;;;4.37;1.50;;;13.60;99.90;;;;;;5062426;28;20872;-52
2023/08/08 01:31:10;;;;;;;6.30;2.30;;;13.60;99.90;;;;;;5070365;28;20477;-51
2023/08/08 01:33:37;;;;;;;4.00;1.80;;;13.60;99.90;;;;;;5068767;28;20457;-50
2023/08/08 01:36:13;;;;;;;6.57;2.73;;;13.60;99.90;;;;;;5063190;28;20495;-50
2023/08/08 01:38:43;;;;;;;3.60;2.33;;;13.50;99.90;;;;;;5071908;28;20472;-51
2023/08/08 01:41:09;;;;;;;9.83;2.13;;;13.50;99.90;;;;;;5069785;28;20477;-52
2023/08/08 01:43:39;;;;;;;2.30;1.83;;;13.60;99.90;;;;;;5056500;28;20955;-51
2023/08/08 01:46:06;;;;;;;2.70;1.60;;;13.50;99.90;;;;;;5051814;28;20539;-50
2023/08/08 01:48:33;;;;;;;4.40;2.47;;;13.60;99.90;;;;;;5061452;28;20461;-51
2023/08/08 01:51:00;;;;;;;4.77;1.83;;;13.50;99.90;;;;;;5065545;28;20488;-52
2023/08/08 01:53:27;;;;;;;4.77;2.30;;;13.50;99.90;;;;;;5071569;28;20499;-52
2023/08/08 01:55:53;;;;;;;4.03;1.90;;;13.50;99.90;;;;;;5061128;28;20905;-51
2023/08/08 01:58:20;;;;;;;4.50;1.97;;;13.50;99.90;;;;;;5071658;28;20500;-52
2023/08/08 02:00:48;;;;;;;5.33;2.20;;;13.50;99.90;;;;;;5071049;28;20508;-51
2023/08/08 02:03:15;;;;;;;4.73;1.83;;;13.50;99.90;;;;;;5063341;28;20465;-51
2023/08/08 02:05:40;;;;;;;6.53;2.50;;;13.50;99.90;;;;;;5061681;28;20568;-51
2023/08/08 02:08:07;;;;;;;1.90;1.50;;;13.60;99.90;;;;;;5064475;28;20552;-51
2023/08/08 02:10:33;;;;;;;2.07;1.77;;;13.50;99.90;;;;;;5069941;28;20234;-51
2023/08/08 02:13:00;;;;;;;4.93;2.10;;;13.60;99.90;;;;;;5073594;28;20499;-52
2023/08/08 02:15:26;;;;;;;3.13;1.40;;;13.50;99.90;;;;;;5064148;28;20520;-51
2023/08/08 02:17:54;;;;;;;3.00;1.83;;;13.50;99.90;;;;;;5072987;28;20488;-51
2023/08/08 02:20:21;;;;;;;4.17;1.90;;;13.50;99.90;;;;;;5074367;28;20457;-51
2023/08/08 02:22:48;;;;;;;6.60;1.90;;;13.50;99.90;;;;;;5062694;28;20481;-51
2023/08/08 02:25:14;;;;;;;5.13;1.60;;;13.50;99.90;;;;;;5068635;28;20564;-52
2023/08/08 02:27:41;;;;;;;3.43;1.80;;;13.50;99.90;;;;;;5074023;28;20503;-50
2023/08/08 02:30:08;;;;;;;6.50;1.87;;;13.50;99.90;;;;;;5066437;28;20504;-51
2023/08/08 02:32:35;;;;;;;5.27;1.83;;;13.50;99.90;;;;;;5070599;28;21359;-51
2023/08/08 02:35:03;;;;;;;13.30;1.60;;;13.40;99.90;;;;;;5072721;28;20465;-51
2023/08/08 02:37:29;;;;;;;1.70;1.60;;;13.40;99.90;;;;;;5071972;28;20514;-51
2023/08/08 02:39:56;;;;;;;5.37;1.90;;;13.30;99.90;;;;;;5066324;28;20504;-51
2023/08/08 02:42:22;;;;;;;3.20;1.97;;;13.30;99.90;;;;;;5073116;28;20519;-52
2023/08/08 02:44:49;;;;;;;4.63;1.67;;;13.30;99.90;;;;;;5072280;28;20518;-52
2023/08/08 02:47:15;;;;;;;4.93;2.10;;;13.30;99.90;;;;;;5072910;28;20503;-51
2023/08/08 02:49:42;;;;;;;16.67;3.33;;;13.30;99.90;;;;;;5073871;28;20452;-51
2023/08/08 02:52:10;;;;;;;4.57;2.50;;;13.30;99.90;;;;;;5073953;28;20500;-51
2023/08/08 02:54:36;;;;;;;3.43;1.57;;;13.20;99.90;;;;;;5064396;28;20830;-51
2023/08/08 02:57:03;;;;;;;3.50;2.10;;;13.10;99.90;;;;;;5070707;28;20551;-51
2023/08/08 02:59:30;;;;;;;7.77;1.87;;;13.10;99.90;;;;;;5072616;28;20499;-51
2023/08/08 03:01:56;;;;;;;5.00;2.43;;;13.10;99.90;;;;;;5072609;28;20492;-51
2023/08/08 03:04:23;;;;;;;4.30;1.97;;;13.10;99.90;;;;;;5070290;28;20514;-51
2023/08/08 03:06:49;;;;;;;1.70;1.60;;;13.00;99.90;;;;;;5072856;28;20500;-50
2023/08/08 03:09:17;;;;;;;4.20;1.70;;;13.10;99.90;;;;;;5069056;28;20550;-50
2023/08/08 03:11:44;;;;;;;6.00;1.83;;;13.00;99.90;;;;;;5071075;28;21187;-51
2023/08/08 03:14:10;;;;;;;5.43;2.30;;;13.00;99.90;;;;;;5068507;28;21118;-50
2023/08/08 03:16:37;;;;;;;7.70;2.00;;;13.00;99.90;;;;;;5073264;28;20476;-51
2023/08/08 03:19:04;;;;;;;4.43;1.97;;;12.90;99.90;;;;;;5074501;28;20893;-51
2023/08/08 03:21:31;;;;;;;12.83;2.37;;;13.00;99.90;;;;;;5073958;28;20465;-50
2023/08/08 03:23:58;;;;;;;2.60;1.90;;;12.90;99.90;;;;;;5068045;28;20496;-51
2023/08/08 03:26:25;;;;;;;4.77;2.07;;;12.90;99.90;;;;;;5069910;28;20477;-50
2023/08/08 03:28:53;;;;;;;6.10;2.10;;;12.90;99.90;;;;;;5074059;28;20789;-50
2023/08/08 03:31:19;;;;;;;3.17;2.10;;;12.90;99.90;;;;;;5074128;28;20469;-50
2023/08/08 03:33:47;;;;;;;4.33;2.07;;;12.80;99.90;;;;;;5073473;28;20894;-51
2023/08/08 03:36:14;;;;;;;3.50;2.03;;;12.90;99.90;;;;;;5074021;28;20445;-50
2023/08/08 03:38:44;;;;;;;3.50;1.83;;;12.90;99.90;;;;;;5063943;28;20910;-50
2023/08/08 03:41:10;;;;;;;3.00;2.13;;;13.00;99.90;;;;;;5072914;28;20572;-51
2023/08/08 03:43:38;;;;;;;2.43;1.77;;;12.90;99.90;;;;;;5073456;28;20813;-51
2023/08/08 03:46:05;;;;;;;3.80;1.80;;;13.00;99.90;;;;;;5073811;28;20516;-50
2023/08/08 03:48:31;;;;;;;4.10;2.70;;;12.90;99.90;;;;;;5073768;28;20477;-51
2023/08/08 03:50:58;;;;;;;5.43;2.00;;;13.00;1.40;;;;;;5072797;28;20578;-50
2023/08/08 03:53:25;;;;;;;3.87;1.70;;;13.00;99.90;;;;;;5066758;28;20488;-50
2023/08/08 03:55:51;;;;;;;5.67;1.97;;;13.00;99.90;;;;;;5073020;28;20906;-51
2023/08/08 03:58:18;;;;;;;10.57;2.23;;;13.00;99.90;;;;;;5073414;28;20912;-50
2023/08/08 04:00:46;;;;;;;1.97;1.77;;;13.00;99.90;;;;;;5073397;28;20504;-51
2023/08/08 04:03:14;;;;;;;5.40;2.10;;;13.00;99.90;;;;;;5073605;28;20441;-51
2023/08/08 04:05:40;;;;;;;7.43;2.40;;;13.00;99.90;;;;;;5068415;28;20543;-51
2023/08/08 04:08:07;;;;;;;9.43;1.70;;;13.00;99.90;;;;;;5066046;28;20496;-50
2023/08/08 04:10:33;;;;;;;4.40;2.07;;;12.90;99.90;;;;;;5073411;28;20472;-51
2023/08/08 04:13:00;;;;;;;4.37;1.90;;;13.00;99.90;;;;;;5073321;28;20533;-50
2023/08/08 04:15:26;;;;;;;4.47;1.93;;;13.00;99.90;;;;;;5072509;28;20472;-51
2023/08/08 04:17:54;;;;;;;3.13;2.13;;;12.90;99.90;;;;;;5073169;28;20871;-50
2023/08/08 04:20:21;;;;;;;8.63;1.97;;;13.00;99.90;;;;;;5071066;28;20465;-51
2023/08/08 04:22:47;;;;;;;3.20;2.23;;;13.00;99.90;;;;;;5067691;28;20508;-51
2023/08/08 04:25:14;;;;;;;2.90;1.70;;;13.00;99.90;;;;;;5072290;28;20512;-51
2023/08/08 04:27:41;;;;;;;6.43;2.30;;;13.00;99.90;;;;;;5071092;28;20473;-52
2023/08/08 04:30:08;;;;;;;2.77;1.97;;;13.00;99.90;;;;;;5072720;28;20473;-50
2023/08/08 04:32:35;;;;;;;4.63;1.83;;;13.00;99.90;;;;;;5070003;28;20516;-51
2023/08/08 04:35:03;;;;;;;5.33;2.37;;;13.00;99.90;;;;;;5067565;28;20568;-50
2023/08/08 04:37:29;;;;;;;5.70;1.97;;;13.00;99.90;;;;;;5070567;28;20492;-50
2023/08/08 04:39:56;;;;;;;6.50;1.90;;;13.00;99.90;;;;;;5072625;28;20571;-50
2023/08/08 04:42:23;;;;;;;5.93;1.90;;;13.00;99.90;;;;;;5064498;28;21040;-51
2023/08/08 04:44:49;;;;;;;8.03;2.00;;;13.00;99.90;;;;;;5070134;28;20540;-50
2023/08/08 04:47:16;;;;;;;5.37;2.80;;;13.10;99.90;;;;;;5070367;28;20512;-51
2023/08/08 04:49:42;;;;;;;3.90;1.80;;;13.00;99.90;;;;;;5071170;28;21019;-50
2023/08/08 04:52:10;;;;;;;4.83;2.00;;;13.00;99.90;;;;;;5072193;28;20489;-50
2023/08/08 04:54:37;;;;;;;6.90;2.00;;;13.00;99.90;;;;;;5071812;28;20448;-50
2023/08/08 04:57:03;;;;;;;4.93;1.93;;;13.00;99.90;;;;;;5072442;28;20476;-50
2023/08/08 04:59:30;;;;;;;3.77;1.80;;;13.00;99.90;;;;;;5072302;28;20473;-51
2023/08/08 05:01:56;;;;;;;2.73;1.70;;;13.10;99.90;;;;;;5066103;28;20529;-51
2023/08/08 05:04:23;;;;;;;8.40;2.70;;;13.10;99.90;;;;;;5067174;28;20526;-50
2023/08/08 05:06:49;;;;;;;4.73;1.87;;;13.10;99.90;;;;;;5071728;28;21002;-51
2023/08/08 05:09:17;;;;;;;7.10;2.13;;;13.10;99.90;;;;;;5072051;28;21080;-51
2023/08/08 05:11:44;;;;;;;4.60;2.60;;;13.20;99.90;;;;;;5072041;28;21011;-50
2023/08/08 05:14:10;;;;;;;4.57;1.90;;;13.20;99.90;;;;;;5071356;28;20973;-51
2023/08/08 05:16:37;;;;;;;5.43;2.03;;;13.20;99.90;;;;;;5066737;28;20476;-51
2023/08/08 05:19:04;;;;;;;7.07;2.00;;;13.20;99.90;;;;;;5071665;28;20480;-50
2023/08/08 05:21:30;;;;;;;4.87;2.17;;;13.20;99.90;;;;;;5072263;28;20499;-51
2023/08/08 05:23:57;;;;;;;2.00;1.80;;;13.20;99.90;;;;;;5071310;28;20441;-51
2023/08/08 05:26:25;;;;;;;6.90;2.07;;;13.20;99.90;;;;;;5071415;28;20492;-50
2023/08/08 05:28:52;;;;;;;4.53;2.30;;;13.20;99.90;;;;;;5071723;28;20525;-51
2023/08/08 05:31:18;;;;;;;2.33;1.70;;;13.20;99.90;;;;;;5061422;28;20492;-50
2023/08/08 05:33:45;;;;;;;2.20;2.00;;;13.20;99.90;;;;;;5063216;28;20496;-50
2023/08/08 05:36:11;;;;;;;6.23;2.20;;;13.20;99.90;;;;;;5063960;28;20517;-50
2023/08/08 05:38:38;;;;;;;3.90;1.83;;;13.30;99.90;;;;;;5070735;28;21195;-52
2023/08/08 05:41:04;;;;;;;4.93;2.23;;;13.40;99.90;;;;;;5071679;28;20495;-50
2023/08/08 05:43:32;;;;;;;5.87;2.07;;;13.50;99.90;;;;;;5068761;28;20500;-50
2023/08/08 05:45:59;;;;;;;6.97;3.10;;;13.50;99.90;;;;;;5063998;28;20508;-50
2023/08/08 05:48:25;;;;;;;5.87;2.37;;;13.60;99.90;;;;;;5070586;28;20489;-50
2023/08/08 05:50:52;;;;;;;7.47;2.77;;;13.70;99.90;;;;;;5071705;28;20599;-51
2023/08/08 05:53:18;;;;;;;12.07;2.37;;;13.70;99.90;;;;;;5071654;28;21028;-51
2023/08/08 05:55:45;;;;;;;5.63;2.00;;;13.70;99.90;;;;;;5071234;28;20475;-50
2023/08/08 05:58:12;;;;;;;8.73;3.00;;;13.80;99.90;;;;;;5067689;28;20902;-52
2023/08/08 06:00:41;;;;;;;5.90;2.13;;;13.80;99.90;;;;;;5069909;28;20975;-53
2023/08/08 06:03:09;;;;;;;8.47;2.10;;;13.90;99.90;;;;;;5066241;28;20555;-49
2023/08/08 06:05:35;;;;;;;6.07;2.30;;;13.90;99.90;;;;;;5058593;28;20507;-51
2023/08/08 06:08:04;;;;;;;6.73;2.10;;;13.90;99.90;;;;;;5064096;28;20457;-51
2023/08/08 06:10:30;;;;;;;7.13;2.20;;;14.00;99.90;;;;;;5069212;28;20981;-51
2023/08/08 06:12:57;;;;;;;9.57;2.20;;;14.00;99.90;;;;;;5066622;28;20518;-51
2023/08/08 06:15:23;;;;;;;2.20;1.47;;;14.10;99.90;;;;;;5063651;28;21247;-51
2023/08/08 06:17:51;;;;;;;4.70;2.50;;;14.20;99.90;;;;;;5071349;28;20846;-50
2023/08/08 06:20:18;;;;;;;3.33;1.97;;;14.20;99.90;;;;;;5070423;28;20473;-51
2023/08/08 06:22:44;;;;;;;2.83;1.77;;;14.20;99.90;;;;;;5068165;28;20563;-52
2023/08/08 06:25:11;;;;;;;2.27;1.50;;;14.30;99.90;;;;;;5069790;28;20477;-50
2023/08/08 06:27:38;;;;;;;6.80;1.67;;;14.30;99.90;;;;;;5063436;28;20483;-53
2023/08/08 06:30:06;;;;;;;3.53;1.80;;;14.40;99.90;;;;;;5069884;28;20465;-50
2023/08/08 06:32:33;;;;;;;2.47;1.90;;;14.50;99.90;;;;;;5061742;28;20473;-50
2023/08/08 06:35:01;;;;;;;3.53;2.50;;;14.50;99.90;;;;;;5067646;28;20542;-51
2023/08/08 06:37:27;;;;;;;1.80;1.57;;;14.60;99.90;;;;;;5069848;28;20469;-50
2023/08/08 06:39:54;;;;;;;4.53;2.37;;;14.60;99.90;;;;;;5070892;28;21064;-50
2023/08/08 06:42:20;;;;;;;4.67;2.17;;;14.60;99.90;;;;;;5066270;28;20515;-50
2023/08/08 06:44:47;;;;;;;7.17;1.97;;;14.60;99.90;;;;;;5066644;28;20484;-50
2023/08/08 06:47:13;;;;;;;4.97;2.00;;;14.60;99.90;;;;;;5069022;28;20544;-51
2023/08/08 06:49:40;;;;;;;2.30;1.50;;;14.60;99.90;;;;;;5067493;28;20485;-51
2023/08/08 06:52:08;;;;;;;3.53;1.50;;;14.60;99.90;;;;;;5064697;28;20572;-50
2023/08/08 06:54:35;;;;;;;2.63;1.90;;;14.60;99.90;;;;;;5063138;28;20540;-50
2023/08/08 06:57:02;;;;;;;5.10;2.93;;;14.60;99.90;;;;;;5068969;28;20878;-50
2023/08/08 06:59:29;;;;;;;9.77;2.40;;;14.60;99.90;;;;;;5069268;28;20465;-50
2023/08/08 07:01:56;;;;;;;3.50;1.90;;;14.60;99.90;;;;;;5072133;28;21180;-50
2023/08/08 07:04:22;;;;;;;4.40;2.10;;;14.60;99.90;;;;;;5068269;28;20453;-51
2023/08/08 07:06:49;;;;;;;7.80;1.80;;;14.60;99.90;;;;;;5071228;28;21184;-51
2023/08/08 07:09:17;;;;;;;4.30;1.80;;;14.80;99.90;;;;;;5071558;28;20460;-51
2023/08/08 07:11:44;;;;;;;4.93;2.17;;;14.80;99.90;;;;;;5069198;28;20580;-50
2023/08/08 07:14:11;;;;;;;5.33;2.80;;;14.90;99.90;;;;;;5072464;28;20456;-50
2023/08/08 07:16:38;;;;;;;5.23;1.90;;;15.00;99.90;;;;;;5074085;28;20437;-50
2023/08/08 07:19:05;;;;;;;7.07;2.77;;;15.10;99.90;;;;;;5071841;28;20468;-51
2023/08/08 07:21:32;;;;;;;2.77;1.90;;;15.30;99.90;;;;;;5072292;28;20480;-50
2023/08/08 07:23:59;;;;;;;9.00;2.47;;;15.40;99.90;;;;;;5073000;28;20485;-51
2023/08/08 07:26:26;;;;;;;13.20;3.80;;;15.60;99.90;;;;;;5073078;28;20512;-50
2023/08/08 07:28:53;;;;;;;14.83;2.90;;;15.60;99.90;;;;;;5070895;28;20481;-50
2023/08/08 07:31:19;;;;;;;4.03;2.20;;;15.60;99.90;;;;;;5073426;28;20492;-50
2023/08/08 07:33:46;;;;;;;7.00;2.47;;;15.60;99.90;;;;;;5071700;28;20490;-50
2023/08/08 07:36:13;;;;;;;15.60;5.63;;;15.50;99.90;;;;;;5071270;28;20450;-51
2023/08/08 07:38:39;;;;;;;3.60;2.33;;;15.50;99.90;;;;;;5066471;28;20457;-51
2023/08/08 07:41:06;;;;;;;4.70;2.43;;;15.50;99.90;;;;;;5066168;28;21233;-51
2023/08/08 07:43:34;;;;;;;21.93;2.80;;;15.60;99.90;;;;;;5069227;28;20461;-50
2023/08/08 07:46:00;;;;;;;7.80;2.67;;;15.70;99.90;;;;;;5066690;28;20461;-50
2023/08/08 07:48:27;;;;;;;2.60;2.40;;;15.80;99.90;;;;;;5070897;28;20496;-50
2023/08/08 07:50:53;;;;;;;6.97;2.10;;;16.00;99.90;;;;;;5068669;28;20910;-50
2023/08/08 07:53:20;;;;;;;4.27;2.10;;;16.10;99.90;;;;;;5069031;28;21225;-51
2023/08/08 07:55:46;;;;;;;9.03;2.00;;;16.10;99.90;;;;;;5068040;28;20555;-50
2023/08/08 07:58:14;;;;;;;6.43;2.00;;;16.20;99.90;;;;;;5067688;28;20484;-50
2023/08/08 08:00:41;;;;;;;6.90;1.97;;;16.20;99.90;;;;;;5069558;28;20500;-51
2023/08/08 08:03:08;;;;;;;3.57;2.30;;;16.20;99.90;;;;;;5067771;28;20584;-50
2023/08/08 08:05:34;;;;;;;5.27;2.07;;;16.20;99.90;;;;;;5065181;28;20488;-50
2023/08/08 08:08:01;;;;;;;9.60;2.60;;;16.00;99.90;;;;;;5069339;28;20931;-50
2023/08/08 08:10:28;;;;;;;4.87;2.10;;;16.00;99.90;;;;;;5070200;28;20459;-49
2023/08/08 08:12:58;;;;;;;2.53;2.10;;;16.00;99.90;;;;;;5069469;28;20493;-51
2023/08/08 08:15:24;;;;;;;5.07;2.33;;;16.00;99.90;;;;;;5070699;28;20836;-50
2023/08/08 08:17:52;;;;;;;6.63;2.33;;;16.00;99.90;;;;;;5062630;28;20492;-50
2023/08/08 08:20:19;;;;;;;10.17;2.43;;;16.00;99.90;;;;;;5069664;28;20461;-50
2023/08/08 08:22:45;;;;;;;3.23;2.00;;;16.00;99.90;;;;;;5071837;28;20480;-50
2023/08/08 08:25:12;;;;;;;12.77;2.27;;;16.00;99.90;;;;;;5071065;28;20485;-50
2023/08/08 08:27:39;;;;;;;5.20;2.30;;;16.10;99.90;;;;;;5068618;28;20544;-50
2023/08/08 08:30:09;;;;;;;4.17;2.20;;;16.10;99.90;;;;;;5071400;28;21014;-51
2023/08/08 08:32:37;;;;;;;3.53;1.90;;;16.10;99.90;;;;;;5075613;28;20477;-50
2023/08/08 08:35:07;;;;;;;5.20;1.70;;;16.10;99.90;;;;;;5070765;28;20605;-50
2023/08/08 08:37:34;;;;;;;2.10;1.90;;;16.00;99.90;;;;;;5072771;28;20516;-50
2023/08/08 08:40:01;;;;;;;4.30;1.50;;;16.00;99.90;;;;;;5072576;28;20477;-50
2023/08/08 08:42:29;;;;;;;6.80;3.43;;;16.00;99.90;;;;;;5066445;28;20483;-51
2023/08/08 08:44:58;;;;;;;8.03;1.90;;;16.00;99.90;;;;;;5068850;28;20571;-52
2023/08/08 08:47:26;;;;;;;5.97;1.97;;;16.10;99.90;;;;;;5069286;28;20568;-51
2023/08/08 08:49:53;;;;;;;9.20;2.80;;;16.00;99.90;;;;;;5063660;28;20522;-51
2023/08/08 08:52:22;;;;;;;4.03;2.10;;;16.20;99.90;;;;;;5068631;28;20488;-52
2023/08/08 08:54:49;;;;;;;6.73;1.93;;;16.20;99.90;;;;;;5068792;28;20850;-52
2023/08/08 08:57:16;;;;;;;8.73;1.80;;;16.30;99.90;;;;;;5067681;28;21018;-52
2023/08/08 08:59:43;;;;;;;3.37;1.90;;;16.40;99.90;;;;;;5070696;28;20495;-52
2023/08/08 09:02:11;;;;;;;6.00;1.80;;;16.40;99.90;;;;;;5073226;28;20496;-52
2023/08/08 09:04:38;;;;;;;4.17;2.17;;;16.50;99.90;;;;;;5070738;28;20500;-50
2023/08/08 09:07:07;;;;;;;3.83;1.70;;;16.60;99.90;;;;;;5069545;28;20481;-50
2023/08/08 09:09:36;;;;;;;4.70;2.20;;;16.60;99.90;;;;;;5067769;28;20475;-50
2023/08/08 09:12:04;;;;;;;4.90;1.90;;;16.70;99.90;;;;;;5068915;28;20480;-50
2023/08/08 09:14:31;;;;;;;3.60;1.87;;;16.60;99.90;;;;;;5068506;28;20939;-50
2023/08/08 09:16:58;;;;;;;4.37;2.30;;;16.70;99.90;;;;;;5068192;28;20496;-51
2023/08/08 09:19:25;;;;;;;6.77;1.87;;;16.60;99.90;;;;;;5063117;28;20950;-51
2023/08/08 09:21:53;;;;;;;5.83;1.80;;;16.60;99.90;;;;;;5071075;28;20556;-50
2023/08/08 09:24:20;;;;;;;3.87;1.70;;;16.50;99.90;;;;;;5069437;28;21005;-51
2023/08/08 09:26:48;;;;;;;6.00;2.40;;;16.50;99.90;;;;;;5069543;28;20481;-50
2023/08/08 09:29:15;;;;;;;7.57;2.33;;;16.60;99.90;;;;;;5070857;28;20476;-50
2023/08/08 09:31:42;;;;;;;5.20;2.00;;;16.80;99.90;;;;;;5068203;28;20488;-51
2023/08/08 09:34:08;;;;;;;3.13;2.00;;;17.00;99.90;;;;;;5065268;28;20496;-50
2023/08/08 09:36:36;;;;;;;13.90;2.10;;;17.20;99.90;;;;;;5069315;28;20489;-51
2023/08/08 09:39:03;;;;;;;8.07;2.03;;;17.30;23.50;;;;;;5069387;28;20468;-50
2023/08/08 09:41:31;;;;;;;5.73;1.97;;;17.40;23.00;;;;;;5062131;28;20567;-50
2023/08/08 09:44:00;;;;;;;3.70;2.53;;;17.50;22.70;;;;;;5064543;28;20469;-51
2023/08/08 09:46:27;;;;;;;2.60;1.60;;;17.70;30.80;;;;;;5063730;28;20540;-51
2023/08/08 09:48:54;;;;;;;6.03;2.30;;;18.00;47.00;;;;;;5068600;28;20926;-50
2023/08/08 09:51:22;;;;;;;4.50;2.03;;;18.60;60.70;;;;;;5068193;28;20515;-51
2023/08/08 09:53:50;;;;;;;25.03;2.10;;;19.00;85.40;;;;;;5060669;28;20460;-51
2023/08/08 09:56:17;;;;;;;4.57;1.97;;;19.30;98.30;;;;;;5064552;28;20534;-51
2023/08/08 09:58:44;;;;;;;3.30;1.67;;;19.40;95.20;;;;;;5065142;28;20495;-51
2023/08/08 10:01:13;;;;;;;3.83;2.07;;;19.50;99.90;;;;;;5070685;28;20504;-51
2023/08/08 10:03:42;;;;;;;3.60;1.80;;;19.40;99.90;;;;;;5064148;28;20969;-51
2023/08/08 10:06:09;;;;;;;4.63;1.70;;;19.50;99.90;;;;;;5067258;28;20995;-50
2023/08/08 10:08:36;;;;;;;4.33;1.70;;;19.30;99.90;;;;;;5068424;28;20480;-50
2023/08/08 10:11:05;;;;;;;2.73;1.80;;;19.20;94.40;;;;;;5071081;28;20488;-50
2023/08/08 10:13:31;;;;;;;3.13;1.93;;;18.50;97.50;;;;;;5067613;28;20872;-50
2023/08/08 10:15:58;;;;;;;3.50;1.90;;;18.30;95.00;;;;;;5064830;28;20495;-50
2023/08/08 10:18:28;;;;;;;13.40;1.93;;;18.00;92.00;;;;;;5064634;28;20536;-51
2023/08/08 10:20:55;;;;;;;4.20;2.00;;;17.80;76.20;;;;;;5066144;28;20511;-50
2023/08/08 10:23:21;;;;;;;11.77;2.10;;;17.70;70.20;;;;;;5069664;28;20497;-49
2023/08/08 10:25:50;;;;;;;5.03;2.10;;;17.20;99.90;;;;;;5065141;28;20883;-50
2023/08/08 10:28:19;;;;;;;3.33;2.37;;;16.70;99.90;;;;;;5067808;28;20591;-51
2023/08/08 10:30:47;;;;;;;7.07;2.50;;;16.30;99.90;;;;;;5068802;28;20483;-50
2023/08/08 10:33:17;;;;;;;2.57;2.07;;;16.20;99.90;;;;;;5072003;28;20461;-50
2023/08/08 10:35:57;;;;;;;5.13;2.43;;;16.20;99.90;;;;;;5070355;28;20526;-52
2023/08/08 10:38:24;;;;;;;4.43;1.90;;;16.20;99.90;;;;;;5071722;28;20484;-50
2023/08/08 10:40:57;;;;;;;10.03;2.57;;;16.30;99.90;;;;;;5072508;28;20476;-51
2023/08/08 10:43:28;;;;;;;8.90;2.40;;;16.30;99.90;;;;;;5071710;28;20836;-51
2023/08/08 10:45:59;;;;;;;4.70;1.90;;;16.30;99.90;;;;;;5071014;28;20464;-51
2023/08/08 10:48:26;;;;;;;3.80;2.00;;;16.00;99.90;;;;;;5068150;28;20476;-50
2023/08/08 10:50:55;;;;;;;5.20;2.20;;;15.70;99.90;;;;;;5070709;28;20508;-51
2023/08/08 10:53:24;;;;;;;4.77;2.50;;;15.70;99.90;;;;;;5071372;28;20504;-49
2023/08/08 10:55:58;;;;;;;4.10;2.10;;;15.60;99.90;;;;;;5068230;28;20974;-50
2023/08/08 10:58:36;;;;;;;8.10;1.60;;;15.90;99.90;;;;;;5067984;28;20544;-50
2023/08/08 11:01:05;;;;;;;3.43;1.90;;;16.20;99.90;;;;;;5068725;28;20545;-50
2023/08/08 11:03:32;;;;;;;4.40;2.20;;;16.50;99.90;;;;;;5069103;28;20557;-53
2023/08/08 11:06:00;;;;;;;7.23;1.67;;;17.40;99.90;;;;;;5070308;28;20492;-53
2023/08/08 11:08:27;;;;;;;8.33;2.00;;;19.10;38.30;;;;;;5065769;28;21089;-53
2023/08/08 11:10:54;;;;;;;4.40;2.30;;;19.60;63.70;;;;;;5071263;28;20583;-53
2023/08/08 11:13:20;;;;;;;4.80;1.90;;;19.90;68.30;;;;;;5068974;28;20500;-54
2023/08/08 11:15:47;;;;;;;3.43;2.00;;;20.40;88.70;;;;;;5064586;28;20495;-53
2023/08/08 11:18:14;;;;;;;4.50;1.90;;;21.10;99.90;;;;;;5060567;28;20489;-53
2023/08/08 11:20:40;;;;;;;4.20;2.07;;;21.90;99.90;;;;;;5067707;28;20511;-53
2023/08/08 11:23:10;;;;;;;4.90;1.97;;;21.90;99.90;;;;;;5068673;28;20457;-52
2023/08/08 11:25:37;;;;;;;4.90;1.90;;;22.20;99.90;;;;;;5067967;28;20514;-53
2023/08/08 11:28:04;;;;;;;2.97;2.00;;;21.20;99.90;;;;;;5064871;28;20601;-52
2023/08/08 11:30:35;;;;;;;5.80;1.80;;;21.30;99.90;;;;;;5066866;28;20584;-53
2023/08/08 11:33:02;;;;;;;2.70;1.70;;;20.80;99.90;;;;;;5068237;28;20551;-53
2023/08/08 11:35:28;;;;;;;3.73;1.90;;;20.10;99.90;;;;;;5065152;28;20453;-54
2023/08/08 11:37:57;;;;;;;6.07;2.00;;;20.20;99.90;;;;;;5067849;28;20477;-54
2023/08/08 11:40:27;;;;;;;8.20;1.87;;;20.00;99.90;;;;;;5065986;28;20485;-53
2023/08/08 11:42:55;;;;;;;10.53;1.90;;;20.30;99.90;;;;;;5067572;28;20457;-55
2023/08/08 11:45:22;;;;;;;7.03;1.87;;;20.60;99.90;;;;;;5064905;28;21013;-54
2023/08/08 11:47:50;;;;;;;2.80;1.80;;;20.60;99.90;;;;;;5069642;28;21076;-55
2023/08/08 11:50:17;;;;;;;1.83;1.27;;;20.30;99.90;;;;;;5064575;28;21137;-53
2023/08/08 11:52:46;;;;;;;3.80;1.53;;;20.50;99.90;;;;;;5067454;28;20478;-55
2023/08/08 11:55:14;;;;;;;4.10;1.53;;;20.60;99.90;;;;;;5065851;28;20493;-53
2023/08/08 11:57:42;;;;;;;4.67;1.60;;;20.90;99.90;;;;;;5068593;28;20457;-53
2023/08/08 12:00:12;;;;;;;4.70;1.20;;;20.50;99.90;;;;;;5067025;28;20553;-54
2023/08/08 12:02:40;;;;;;;4.20;1.27;;;20.50;99.90;;;;;;5066105;28;20507;-53
2023/08/08 12:05:07;;;;;;;13.60;1.93;;;20.60;99.90;;;;;;5065825;28;20465;-54
2023/08/08 12:07:34;;;;;;;2.00;1.70;;;20.20;99.90;;;;;;5066895;28;20465;-54
2023/08/08 12:10:01;;;;;;;2.80;1.50;;;19.90;99.90;;;;;;5070103;28;20457;-55
2023/08/08 12:12:27;;;;;;;4.00;1.70;;;20.20;99.90;;;;;;5065649;28;20492;-55
2023/08/08 12:14:56;;;;;;;3.47;1.50;;;20.30;99.90;;;;;;5068316;28;20484;-54
2023/08/08 12:17:22;;;;;;;5.00;1.40;;;20.20;99.90;;;;;;5068857;28;20493;-53
2023/08/08 12:19:49;;;;;;;1.60;1.50;;;20.20;99.90;;;;;;5066227;28;20457;-54
2023/08/08 12:22:16;;;;;;;2.30;1.77;;;19.80;99.90;;;;;;5067496;28;20511;-54
2023/08/08 12:24:42;;;;;;;2.70;1.30;;;19.50;99.90;;;;;;5071297;28;20479;-53
2023/08/08 12:27:09;;;;;;;9.77;1.23;;;19.40;99.90;;;;;;5069628;28;20913;-55
2023/08/08 12:29:35;;;;;;;1.93;1.40;;;19.30;99.90;;;;;;5067596;28;20575;-54
2023/08/08 12:32:07;;;;;;;3.43;1.57;;;19.50;99.90;;;;;;5071785;28;20489;-54
2023/08/08 12:34:34;;;;;;;2.50;1.70;;;19.60;99.90;;;;;;5071009;28;20445;-54
2023/08/08 12:37:00;;;;;;;8.07;1.60;;;19.80;99.90;;;;;;5066231;28;20855;-54
2023/08/08 12:39:27;;;;;;;5.20;1.97;;;19.80;99.90;;;;;;5067727;28;20896;-53
2023/08/08 12:41:54;;;;;;;3.53;1.90;;;19.70;99.90;;;;;;5065357;28;20576;-54
2023/08/08 12:44:20;;;;;;;1.67;1.50;;;19.40;99.90;;;;;;5072503;28;20505;-53
2023/08/08 12:46:47;;;;;;;11.20;2.23;;;19.20;99.90;;;;;;5071031;28;20869;-54